Terminal Aerodrome Forecast
Issued by NWS

Home | Current Version | Previous Version | Graphics & Text | Print | Product List | Glossary On
Versions: 1 2 3 4 5 6 7 8 9 10 11 12 13 14 15 16 17 18 19 20 21 22 23
194
FTUS43 KABR 192329
TAFPIR
TAF
KPIR 192329Z 2000/2024 00000KT P6SM SKC
     FM200300 VRB03KT 2SM BR FEW001
     FM200500 VRB03KT 1 1/2SM BR VV002
     FM201300 VRB03KT 2SM BR OVC003
     FM201800 19004KT P6SM BKN070=

USA.gov is the U.S. government's official web portal to all federal, state and local government web resources and services.